sensor_id;sensor_type;location;lat;lon;timestamp;temperature;humidity
4056;DHT22;2043;52.184;8.690;2023-03-01T00:01:20;-3.00;99.90
4056;DHT22;2043;52.184;8.690;2023-03-01T00:03:48;-3.10;99.90
4056;DHT22;2043;52.184;8.690;2023-03-01T00:06:15;-3.20;99.90
4056;DHT22;2043;52.184;8.690;2023-03-01T00:08:42;-3.10;99.90
4056;DHT22;2043;52.184;8.690;2023-03-01T00:13:39;-3.20;99.90
4056;DHT22;2043;52.184;8.690;2023-03-01T00:16:08;-3.30;99.90
4056;DHT22;2043;52.184;8.690;2023-03-01T00:21:03;-3.10;99.90
4056;DHT22;2043;52.184;8.690;2023-03-01T00:23:29;-2.90;99.90
4056;DHT22;2043;52.184;8.690;2023-03-01T00:30:51;-2.50;99.90
4056;DHT22;2043;52.184;8.690;2023-03-01T00:33:18;-2.50;99.90
4056;DHT22;2043;52.184;8.690;2023-03-01T00:35:45;-2.60;99.90
4056;DHT22;2043;52.184;8.690;2023-03-01T00:43:06;-3.10;99.90
4056;DHT22;2043;52.184;8.690;2023-03-01T00:45:33;-3.10;99.90
4056;DHT22;2043;52.184;8.690;2023-03-01T00:47:59;-3.20;99.90
4056;DHT22;2043;52.184;8.690;2023-03-01T00:52:54;-3.00;99.90
4056;DHT22;2043;52.184;8.690;2023-03-01T00:55:22;-2.90;99.90
4056;DHT22;2043;52.184;8.690;2023-03-01T01:00:17;-2.90;99.90
4056;DHT22;2043;52.184;8.690;2023-03-01T01:05:12;-3.00;99.90
4056;DHT22;2043;52.184;8.690;2023-03-01T01:07:38;-3.00;99.90
4056;DHT22;2043;52.184;8.690;2023-03-01T01:10:06;-3.10;99.90
4056;DHT22;2043;52.184;8.690;2023-03-01T01:39:35;-3.30;99.90
4056;DHT22;2043;52.184;8.690;2023-03-01T01:44:29;-3.20;99.90
4056;DHT22;2043;52.184;8.690;2023-03-01T01:46:57;-3.20;99.90
4056;DHT22;2043;52.184;8.690;2023-03-01T01:54:57;-3.00;99.90
4056;DHT22;2043;52.184;8.690;2023-03-01T01:57:31;-2.90;99.90
4056;DHT22;2043;52.184;8.690;2023-03-01T02:00:06;-2.80;99.90
4056;DHT22;2043;52.184;8.690;2023-03-01T02:10:33;-2.80;99.90
4056;DHT22;2043;52.184;8.690;2023-03-01T02:13:02;-2.80;99.90
4056;DHT22;2043;52.184;8.690;2023-03-01T02:15:33;-2.70;99.90
4056;DHT22;2043;52.184;8.690;2023-03-01T02:18:02;-2.70;99.90
4056;DHT22;2043;52.184;8.690;2023-03-01T02:23:01;-2.80;99.90
4056;DHT22;2043;52.184;8.690;2023-03-01T02:30:41;-3.10;99.90
4056;DHT22;2043;52.184;8.690;2023-03-01T02:33:29;-3.10;99.90
4056;DHT22;2043;52.184;8.690;2023-03-01T02:36:00;-3.10;99.90
4056;DHT22;2043;52.184;8.690;2023-03-01T02:38:28;-3.10;99.90
4056;DHT22;2043;52.184;8.690;2023-03-01T02:40:56;-3.20;99.90
4056;DHT22;2043;52.184;8.690;2023-03-01T02:43:27;-3.20;99.90
4056;DHT22;2043;52.184;8.690;2023-03-01T02:46:03;-3.30;99.90
4056;DHT22;2043;52.184;8.690;2023-03-01T02:48:40;-3.30;99.90
4056;DHT22;2043;52.184;8.690;2023-03-01T02:56:33;-3.70;99.90
4056;DHT22;2043;52.184;8.690;2023-03-01T02:59:00;-3.90;99.90
4056;DHT22;2043;52.184;8.690;2023-03-01T03:01:28;-4.10;99.90
4056;DHT22;2043;52.184;8.690;2023-03-01T03:04:10;-4.20;99.90
4056;DHT22;2043;52.184;8.690;2023-03-01T03:06:37;-4.10;99.90
4056;DHT22;2043;52.184;8.690;2023-03-01T03:09:04;-4.00;99.90
4056;DHT22;2043;52.184;8.690;2023-03-01T03:36:03;-4.00;99.90
4056;DHT22;2043;52.184;8.690;2023-03-01T03:38:31;-4.10;99.90
4056;DHT22;2043;52.184;8.690;2023-03-01T03:41:05;-4.20;99.90
4056;DHT22;2043;52.184;8.690;2023-03-01T03:43:33;-4.40;99.90
4056;DHT22;2043;52.184;8.690;2023-03-01T03:46:01;-4.50;99.90
4056;DHT22;2043;52.184;8.690;2023-03-01T03:48:36;-4.40;99.90
4056;DHT22;2043;52.184;8.690;2023-03-01T03:51:03;-4.40;99.90
4056;DHT22;2043;52.184;8.690;2023-03-01T03:53:33;-4.40;99.90
4056;DHT22;2043;52.184;8.690;2023-03-01T04:00:56;-4.50;99.90
4056;DHT22;2043;52.184;8.690;2023-03-01T04:03:24;-4.60;99.90
4056;DHT22;2043;52.184;8.690;2023-03-01T04:05:52;-4.60;99.90
4056;DHT22;2043;52.184;8.690;2023-03-01T04:08:21;-4.60;99.90
4056;DHT22;2043;52.184;8.690;2023-03-01T04:10:53;-4.60;99.90
4056;DHT22;2043;52.184;8.690;2023-03-01T04:13:23;-4.40;99.90
4056;DHT22;2043;52.184;8.690;2023-03-01T04:15:52;-4.30;99.90
4056;DHT22;2043;52.184;8.690;2023-03-01T04:18:21;-4.20;99.90
4056;DHT22;2043;52.184;8.690;2023-03-01T04:20:49;-4.20;99.90
4056;DHT22;2043;52.184;8.690;2023-03-01T04:23:18;-4.20;99.90
4056;DHT22;2043;52.184;8.690;2023-03-01T04:28:24;-4.20;99.90
4056;DHT22;2043;52.184;8.690;2023-03-01T04:30:56;-4.20;99.90
4056;DHT22;2043;52.184;8.690;2023-03-01T04:33:24;-4.20;99.90
4056;DHT22;2043;52.184;8.690;2023-03-01T04:35:51;-4.20;99.90
4056;DHT22;2043;52.184;8.690;2023-03-01T04:38:19;-4.20;99.90
4056;DHT22;2043;52.184;8.690;2023-03-01T04:55:33;-4.50;99.90
4056;DHT22;2043;52.184;8.690;2023-03-01T05:02:59;-4.60;99.90
4056;DHT22;2043;52.184;8.690;2023-03-01T05:05:30;-4.60;99.90
4056;DHT22;2043;52.184;8.690;2023-03-01T05:16:00;-4.30;99.90
4056;DHT22;2043;52.184;8.690;2023-03-01T05:18:29;-4.20;99.90
4056;DHT22;2043;52.184;8.690;2023-03-01T05:21:03;-4.20;99.90
4056;DHT22;2043;52.184;8.690;2023-03-01T05:23:32;-4.20;99.90
4056;DHT22;2043;52.184;8.690;2023-03-01T05:26:00;-4.30;99.90
4056;DHT22;2043;52.184;8.690;2023-03-01T05:28:27;-4.40;99.90
4056;DHT22;2043;52.184;8.690;2023-03-01T05:30:55;-4.40;99.90
4056;DHT22;2043;52.184;8.690;2023-03-01T05:33:22;-4.50;99.90
4056;DHT22;2043;52.184;8.690;2023-03-01T05:35:50;-4.60;99.90
4056;DHT22;2043;52.184;8.690;2023-03-01T05:38:18;-4.70;99.90
4056;DHT22;2043;52.184;8.690;2023-03-01T05:40:48;-4.80;99.90
4056;DHT22;2043;52.184;8.690;2023-03-01T05:43:16;-4.80;99.90
4056;DHT22;2043;52.184;8.690;2023-03-01T05:45:43;-4.80;99.90
4056;DHT22;2043;52.184;8.690;2023-03-01T05:48:10;-4.70;99.90
4056;DHT22;2043;52.184;8.690;2023-03-01T05:50:40;-4.70;99.90
4056;DHT22;2043;52.184;8.690;2023-03-01T05:53:15;-4.70;99.90
4056;DHT22;2043;52.184;8.690;2023-03-01T05:55:43;-4.70;99.90
4056;DHT22;2043;52.184;8.690;2023-03-01T05:58:13;-4.70;99.90
4056;DHT22;2043;52.184;8.690;2023-03-01T06:00:44;-4.60;99.90
4056;DHT22;2043;52.184;8.690;2023-03-01T06:03:12;-4.70;99.90
4056;DHT22;2043;52.184;8.690;2023-03-01T06:05:40;-4.70;99.90
4056;DHT22;2043;52.184;8.690;2023-03-01T06:10:34;-4.90;99.90
4056;DHT22;2043;52.184;8.690;2023-03-01T06:17:56;-4.90;99.90
4056;DHT22;2043;52.184;8.690;2023-03-01T06:20:27;-4.80;99.90
4056;DHT22;2043;52.184;8.690;2023-03-01T06:25:23;-4.90;99.90
4056;DHT22;2043;52.184;8.690;2023-03-01T06:30:20;-4.80;99.90
4056;DHT22;2043;52.184;8.690;2023-03-01T06:32:47;-4.80;99.90
4056;DHT22;2043;52.184;8.690;2023-03-01T06:35:16;-4.70;99.90
4056;DHT22;2043;52.184;8.690;2023-03-01T06:37:46;-4.50;99.90
4056;DHT22;2043;52.184;8.690;2023-03-01T06:40:14;-4.30;99.90
4056;DHT22;2043;52.184;8.690;2023-03-01T06:42:43;-4.10;99.90
4056;DHT22;2043;52.184;8.690;2023-03-01T06:45:11;-4.10;99.90
4056;DHT22;2043;52.184;8.690;2023-03-01T06:47:38;-4.20;99.90
4056;DHT22;2043;52.184;8.690;2023-03-01T06:50:05;-4.20;99.90
4056;DHT22;2043;52.184;8.690;2023-03-01T06:57:27;-4.30;99.90
4056;DHT22;2043;52.184;8.690;2023-03-01T06:59:54;-4.10;99.90
4056;DHT22;2043;52.184;8.690;2023-03-01T07:04:51;-3.80;99.90
4056;DHT22;2043;52.184;8.690;2023-03-01T07:07:18;-3.60;99.90
4056;DHT22;2043;52.184;8.690;2023-03-01T07:09:46;-3.00;99.90
4056;DHT22;2043;52.184;8.690;2023-03-01T07:12:12;-1.90;99.90
4056;DHT22;2043;52.184;8.690;2023-03-01T07:14:39;-0.70;99.90
4056;DHT22;2043;52.184;8.690;2023-03-01T07:17:06;0.40;96.90
4056;DHT22;2043;52.184;8.690;2023-03-01T07:19:33;1.30;93.00
4056;DHT22;2043;52.184;8.690;2023-03-01T07:22:00;1.90;90.80
4056;DHT22;2043;52.184;8.690;2023-03-01T07:24:27;2.60;88.90
4056;DHT22;2043;52.184;8.690;2023-03-01T07:26:53;3.20;86.70
4056;DHT22;2043;52.184;8.690;2023-03-01T07:29:20;3.50;85.20
4056;DHT22;2043;52.184;8.690;2023-03-01T07:31:47;4.00;84.50
4056;DHT22;2043;52.184;8.690;2023-03-01T07:34:14;4.50;83.50
4056;DHT22;2043;52.184;8.690;2023-03-01T07:36:40;4.80;82.50
4056;DHT22;2043;52.184;8.690;2023-03-01T07:39:12;4.90;81.90
4056;DHT22;2043;52.184;8.690;2023-03-01T07:41:39;5.00;81.70
4056;DHT22;2043;52.184;8.690;2023-03-01T07:44:05;5.10;81.70
4056;DHT22;2043;52.184;8.690;2023-03-01T07:46:32;5.40;81.10
4056;DHT22;2043;52.184;8.690;2023-03-01T07:48:59;5.50;80.40
4056;DHT22;2043;52.184;8.690;2023-03-01T07:51:26;5.70;80.70
4056;DHT22;2043;52.184;8.690;2023-03-01T07:53:53;5.90;79.80
4056;DHT22;2043;52.184;8.690;2023-03-01T07:56:20;6.10;80.00
4056;DHT22;2043;52.184;8.690;2023-03-01T07:58:48;6.40;79.30
4056;DHT22;2043;52.184;8.690;2023-03-01T08:01:19;6.80;79.00
4056;DHT22;2043;52.184;8.690;2023-03-01T08:03:46;7.30;77.60
4056;DHT22;2043;52.184;8.690;2023-03-01T08:06:15;7.40;77.40
4056;DHT22;2043;52.184;8.690;2023-03-01T08:08:42;7.50;76.40
4056;DHT22;2043;52.184;8.690;2023-03-01T08:11:11;7.40;76.60
4056;DHT22;2043;52.184;8.690;2023-03-01T08:13:38;7.50;76.60
4056;DHT22;2043;52.184;8.690;2023-03-01T08:16:08;7.90;76.10
4056;DHT22;2043;52.184;8.690;2023-03-01T08:18:36;8.60;75.50
4056;DHT22;2043;52.184;8.690;2023-03-01T08:21:08;8.50;74.40
4056;DHT22;2043;52.184;8.690;2023-03-01T08:23:35;8.70;74.70
4056;DHT22;2043;52.184;8.690;2023-03-01T08:26:14;8.90;73.80
4056;DHT22;2043;52.184;8.690;2023-03-01T08:28:42;9.00;73.50
4056;DHT22;2043;52.184;8.690;2023-03-01T08:31:27;9.00;73.50
4056;DHT22;2043;52.184;8.690;2023-03-01T08:33:58;9.00;73.20
4056;DHT22;2043;52.184;8.690;2023-03-01T08:36:31;9.00;73.10
4056;DHT22;2043;52.184;8.690;2023-03-01T08:38:59;9.20;73.40
4056;DHT22;2043;52.184;8.690;2023-03-01T08:41:27;9.30;73.00
4056;DHT22;2043;52.184;8.690;2023-03-01T08:43:53;9.30;73.00
4056;DHT22;2043;52.184;8.690;2023-03-01T08:46:29;9.00;73.00
4056;DHT22;2043;52.184;8.690;2023-03-01T08:48:57;8.90;73.10
4056;DHT22;2043;52.184;8.690;2023-03-01T08:51:24;9.30;73.10
4056;DHT22;2043;52.184;8.690;2023-03-01T08:53:52;9.40;72.20
4056;DHT22;2043;52.184;8.690;2023-03-01T08:56:19;9.80;72.20
4056;DHT22;2043;52.184;8.690;2023-03-01T08:58:47;9.80;72.20
4056;DHT22;2043;52.184;8.690;2023-03-01T09:01:16;9.70;71.40
4056;DHT22;2043;52.184;8.690;2023-03-01T09:03:44;9.70;71.50
4056;DHT22;2043;52.184;8.690;2023-03-01T09:06:11;10.00;72.00
4056;DHT22;2043;52.184;8.690;2023-03-01T09:08:40;10.80;70.60
4056;DHT22;2043;52.184;8.690;2023-03-01T09:11:09;10.80;69.80
4056;DHT22;2043;52.184;8.690;2023-03-01T09:13:36;10.70;70.00
4056;DHT22;2043;52.184;8.690;2023-03-01T09:16:05;10.40;69.90
4056;DHT22;2043;52.184;8.690;2023-03-01T09:18:33;10.30;70.70
4056;DHT22;2043;52.184;8.690;2023-03-01T09:21:02;10.60;69.50
4056;DHT22;2043;52.184;8.690;2023-03-01T09:23:39;11.00;69.40
4056;DHT22;2043;52.184;8.690;2023-03-01T09:26:07;11.70;68.70
4056;DHT22;2043;52.184;8.690;2023-03-01T09:28:38;12.30;67.50
4056;DHT22;2043;52.184;8.690;2023-03-01T09:31:06;12.30;67.30
4056;DHT22;2043;52.184;8.690;2023-03-01T09:33:33;12.30;67.00
4056;DHT22;2043;52.184;8.690;2023-03-01T09:36:04;12.20;66.00
4056;DHT22;2043;52.184;8.690;2023-03-01T09:38:32;12.00;66.00
4056;DHT22;2043;52.184;8.690;2023-03-01T09:41:00;12.00;66.00
4056;DHT22;2043;52.184;8.690;2023-03-01T09:43:48;11.90;65.80
4056;DHT22;2043;52.184;8.690;2023-03-01T09:46:23;11.80;66.00
4056;DHT22;2043;52.184;8.690;2023-03-01T09:48:54;11.80;66.40
4056;DHT22;2043;52.184;8.690;2023-03-01T09:51:33;11.90;66.30
4056;DHT22;2043;52.184;8.690;2023-03-01T09:54:04;11.50;66.50
4056;DHT22;2043;52.184;8.690;2023-03-01T10:05:40;11.70;64.40
4056;DHT22;2043;52.184;8.690;2023-03-01T10:10:36;12.30;63.90
4056;DHT22;2043;52.184;8.690;2023-03-01T10:13:14;11.70;63.80
4056;DHT22;2043;52.184;8.690;2023-03-01T10:15:50;11.20;64.80
4056;DHT22;2043;52.184;8.690;2023-03-01T10:18:26;11.00;64.50
4056;DHT22;2043;52.184;8.690;2023-03-01T10:21:03;11.30;64.60
4056;DHT22;2043;52.184;8.690;2023-03-01T10:23:34;11.50;64.10
4056;DHT22;2043;52.184;8.690;2023-03-01T10:31:50;11.10;64.40
4056;DHT22;2043;52.184;8.690;2023-03-01T10:34:27;11.20;64.40
4056;DHT22;2043;52.184;8.690;2023-03-01T10:36:57;11.40;64.40
4056;DHT22;2043;52.184;8.690;2023-03-01T10:39:25;11.40;64.40
4056;DHT22;2043;52.184;8.690;2023-03-01T10:42:00;11.40;64.00
4056;DHT22;2043;52.184;8.690;2023-03-01T10:47:21;11.30;63.90
4056;DHT22;2043;52.184;8.690;2023-03-01T10:52:23;10.90;64.80
4056;DHT22;2043;52.184;8.690;2023-03-01T10:54:58;11.00;64.90
4056;DHT22;2043;52.184;8.690;2023-03-01T10:57:37;10.90;64.80
4056;DHT22;2043;52.184;8.690;2023-03-01T11:00:15;10.80;64.80
4056;DHT22;2043;52.184;8.690;2023-03-01T11:03:09;10.20;65.50
4056;DHT22;2043;52.184;8.690;2023-03-01T11:06:00;10.50;66.10
4056;DHT22;2043;52.184;8.690;2023-03-01T11:08:36;10.50;65.70
4056;DHT22;2043;52.184;8.690;2023-03-01T11:13:36;10.90;65.40
4056;DHT22;2043;52.184;8.690;2023-03-01T11:16:12;10.60;65.50
4056;DHT22;2043;52.184;8.690;2023-03-01T11:18:39;10.20;65.90
4056;DHT22;2043;52.184;8.690;2023-03-01T11:21:15;10.10;66.70
4056;DHT22;2043;52.184;8.690;2023-03-01T11:23:43;10.00;66.50
4056;DHT22;2043;52.184;8.690;2023-03-01T11:26:13;10.30;66.60
4056;DHT22;2043;52.184;8.690;2023-03-01T11:28:42;10.30;66.30
4056;DHT22;2043;52.184;8.690;2023-03-01T11:31:11;10.50;66.70
4056;DHT22;2043;52.184;8.690;2023-03-01T11:33:50;10.60;66.10
4056;DHT22;2043;52.184;8.690;2023-03-01T11:41:39;10.50;66.10
4056;DHT22;2043;52.184;8.690;2023-03-01T11:44:21;10.40;66.80
4056;DHT22;2043;52.184;8.690;2023-03-01T12:03:25;10.50;66.60
4056;DHT22;2043;52.184;8.690;2023-03-01T12:14:38;10.10;67.20
4056;DHT22;2043;52.184;8.690;2023-03-01T12:22:35;9.90;67.20
4056;DHT22;2043;52.184;8.690;2023-03-01T12:31:16;10.20;66.90
4056;DHT22;2043;52.184;8.690;2023-03-01T12:48:24;10.10;66.20
4056;DHT22;2043;52.184;8.690;2023-03-01T12:50:57;9.80;66.00
4056;DHT22;2043;52.184;8.690;2023-03-01T12:53:31;9.70;66.80
4056;DHT22;2043;52.184;8.690;2023-03-01T12:56:02;9.70;66.80
4056;DHT22;2043;52.184;8.690;2023-03-01T13:01:36;9.40;67.00
4056;DHT22;2043;52.184;8.690;2023-03-01T13:07:15;9.70;66.60
4056;DHT22;2043;52.184;8.690;2023-03-01T13:21:01;10.00;66.70
4056;DHT22;2043;52.184;8.690;2023-03-01T13:23:37;9.90;66.80
4056;DHT22;2043;52.184;8.690;2023-03-01T13:26:12;9.90;66.90
4056;DHT22;2043;52.184;8.690;2023-03-01T13:28:52;10.00;67.00
4056;DHT22;2043;52.184;8.690;2023-03-01T13:33:50;9.60;67.80
4056;DHT22;2043;52.184;8.690;2023-03-01T13:39:01;10.10;66.70
4056;DHT22;2043;52.184;8.690;2023-03-01T13:44:37;9.80;67.00
4056;DHT22;2043;52.184;8.690;2023-03-01T13:50:00;9.80;66.60
4056;DHT22;2043;52.184;8.690;2023-03-01T13:52:44;9.60;66.90
4056;DHT22;2043;52.184;8.690;2023-03-01T13:55:44;9.70;67.00
4056;DHT22;2043;52.184;8.690;2023-03-01T14:00:54;9.70;67.30
4056;DHT22;2043;52.184;8.690;2023-03-01T14:03:22;9.60;66.80
4056;DHT22;2043;52.184;8.690;2023-03-01T14:08:39;9.80;67.60
4056;DHT22;2043;52.184;8.690;2023-03-01T14:17:28;9.80;66.30
4056;DHT22;2043;52.184;8.690;2023-03-01T14:19:34;9.70;66.90
4056;DHT22;2043;52.184;8.690;2023-03-01T14:22:25;9.80;66.20
4056;DHT22;2043;52.184;8.690;2023-03-01T14:25:05;9.70;66.50
4056;DHT22;2043;52.184;8.690;2023-03-01T14:27:38;9.70;66.00
4056;DHT22;2043;52.184;8.690;2023-03-01T14:30:20;9.80;66.00
4056;DHT22;2043;52.184;8.690;2023-03-01T14:32:56;9.80;65.60
4056;DHT22;2043;52.184;8.690;2023-03-01T14:35:26;9.70;66.20
4056;DHT22;2043;52.184;8.690;2023-03-01T14:37:53;9.60;66.20
4056;DHT22;2043;52.184;8.690;2023-03-01T14:40:38;9.60;66.40
4056;DHT22;2043;52.184;8.690;2023-03-01T14:43:13;9.60;65.70
4056;DHT22;2043;52.184;8.690;2023-03-01T14:45:47;9.70;65.60
4056;DHT22;2043;52.184;8.690;2023-03-01T14:48:15;9.60;65.30
4056;DHT22;2043;52.184;8.690;2023-03-01T14:50:43;9.50;65.80
4056;DHT22;2043;52.184;8.690;2023-03-01T14:53:23;9.30;66.00
4056;DHT22;2043;52.184;8.690;2023-03-01T14:55:59;9.30;66.30
4056;DHT22;2043;52.184;8.690;2023-03-01T14:58:29;9.20;66.40
4056;DHT22;2043;52.184;8.690;2023-03-01T15:01:00;9.10;66.40
4056;DHT22;2043;52.184;8.690;2023-03-01T15:03:46;9.10;66.30
4056;DHT22;2043;52.184;8.690;2023-03-01T15:06:22;8.80;66.10
4056;DHT22;2043;52.184;8.690;2023-03-01T15:08:53;8.80;66.30
4056;DHT22;2043;52.184;8.690;2023-03-01T15:11:32;8.80;66.40
4056;DHT22;2043;52.184;8.690;2023-03-01T15:13:59;8.70;66.30
4056;DHT22;2043;52.184;8.690;2023-03-01T15:19:04;8.60;66.40
4056;DHT22;2043;52.184;8.690;2023-03-01T15:21:33;8.70;66.60
4056;DHT22;2043;52.184;8.690;2023-03-01T15:26:55;8.70;66.90
4056;DHT22;2043;52.184;8.690;2023-03-01T15:29:29;8.60;66.70
4056;DHT22;2043;52.184;8.690;2023-03-01T15:32:23;8.40;67.10
4056;DHT22;2043;52.184;8.690;2023-03-01T15:34:51;8.30;67.50
4056;DHT22;2043;52.184;8.690;2023-03-01T15:37:38;8.30;67.70
4056;DHT22;2043;52.184;8.690;2023-03-01T15:43:02;8.40;67.90
4056;DHT22;2043;52.184;8.690;2023-03-01T15:45:31;8.50;68.10
4056;DHT22;2043;52.184;8.690;2023-03-01T15:48:13;8.50;68.20
4056;DHT22;2043;52.184;8.690;2023-03-01T15:50:41;8.40;67.90
4056;DHT22;2043;52.184;8.690;2023-03-01T15:53:12;8.20;68.00
4056;DHT22;2043;52.184;8.690;2023-03-01T15:55:40;8.20;68.80
4056;DHT22;2043;52.184;8.690;2023-03-01T15:58:14;8.10;68.40
4056;DHT22;2043;52.184;8.690;2023-03-01T16:00:42;7.90;68.90
4056;DHT22;2043;52.184;8.690;2023-03-01T16:03:25;7.80;69.40
4056;DHT22;2043;52.184;8.690;2023-03-01T16:05:52;7.80;69.50
4056;DHT22;2043;52.184;8.690;2023-03-01T16:08:20;7.80;69.30
4056;DHT22;2043;52.184;8.690;2023-03-01T16:10:47;7.70;69.40
4056;DHT22;2043;52.184;8.690;2023-03-01T16:13:16;7.60;69.70
4056;DHT22;2043;52.184;8.690;2023-03-01T16:15:44;7.60;69.80
4056;DHT22;2043;52.184;8.690;2023-03-01T16:18:11;7.60;69.80
4056;DHT22;2043;52.184;8.690;2023-03-01T16:20:39;7.60;69.70
4056;DHT22;2043;52.184;8.690;2023-03-01T16:23:07;7.50;69.70
4056;DHT22;2043;52.184;8.690;2023-03-01T16:25:35;7.60;69.60
4056;DHT22;2043;52.184;8.690;2023-03-01T16:28:03;7.50;69.50
4056;DHT22;2043;52.184;8.690;2023-03-01T16:30:39;7.40;69.80
4056;DHT22;2043;52.184;8.690;2023-03-01T16:36:10;7.20;70.50
4056;DHT22;2043;52.184;8.690;2023-03-01T16:38:37;7.10;70.80
4056;DHT22;2043;52.184;8.690;2023-03-01T16:43:44;6.90;71.30
4056;DHT22;2043;52.184;8.690;2023-03-01T16:46:16;6.80;71.30
4056;DHT22;2043;52.184;8.690;2023-03-01T16:48:43;6.70;71.90
4056;DHT22;2043;52.184;8.690;2023-03-01T16:51:10;6.60;72.30
4056;DHT22;2043;52.184;8.690;2023-03-01T16:53:37;6.60;72.10
4056;DHT22;2043;52.184;8.690;2023-03-01T16:56:06;6.50;72.10
4056;DHT22;2043;52.184;8.690;2023-03-01T16:58:35;6.50;72.20
4056;DHT22;2043;52.184;8.690;2023-03-01T17:01:17;6.50;72.10
4056;DHT22;2043;52.184;8.690;2023-03-01T17:03:46;6.40;72.40
4056;DHT22;2043;52.184;8.690;2023-03-01T17:06:16;6.40;72.70
4056;DHT22;2043;52.184;8.690;2023-03-01T17:08:43;6.30;72.80
4056;DHT22;2043;52.184;8.690;2023-03-01T17:11:12;6.30;73.20
4056;DHT22;2043;52.184;8.690;2023-03-01T17:13:39;6.20;73.30
4056;DHT22;2043;52.184;8.690;2023-03-01T17:16:09;6.20;73.20
4056;DHT22;2043;52.184;8.690;2023-03-01T17:18:37;6.10;73.70
4056;DHT22;2043;52.184;8.690;2023-03-01T17:21:05;6.10;73.80
4056;DHT22;2043;52.184;8.690;2023-03-01T17:23:34;6.00;74.20
4056;DHT22;2043;52.184;8.690;2023-03-01T17:26:01;6.00;74.50
4056;DHT22;2043;52.184;8.690;2023-03-01T17:28:29;5.90;74.80
4056;DHT22;2043;52.184;8.690;2023-03-01T17:31:02;5.90;75.10
4056;DHT22;2043;52.184;8.690;2023-03-01T17:33:30;5.70;75.60
4056;DHT22;2043;52.184;8.690;2023-03-01T17:35:57;5.60;76.40
4056;DHT22;2043;52.184;8.690;2023-03-01T17:38:25;5.30;76.30
4056;DHT22;2043;52.184;8.690;2023-03-01T17:40:52;5.00;77.30
4056;DHT22;2043;52.184;8.690;2023-03-01T17:43:19;4.70;78.20
4056;DHT22;2043;52.184;8.690;2023-03-01T17:45:45;4.30;79.00
4056;DHT22;2043;52.184;8.690;2023-03-01T17:48:15;4.00;80.10
4056;DHT22;2043;52.184;8.690;2023-03-01T17:50:43;3.70;81.40
4056;DHT22;2043;52.184;8.690;2023-03-01T17:53:10;3.40;82.60
4056;DHT22;2043;52.184;8.690;2023-03-01T17:55:39;3.30;83.30
4056;DHT22;2043;52.184;8.690;2023-03-01T17:58:08;3.40;83.50
4056;DHT22;2043;52.184;8.690;2023-03-01T18:00:35;3.40;83.50
4056;DHT22;2043;52.184;8.690;2023-03-01T18:03:02;3.60;83.30
4056;DHT22;2043;52.184;8.690;2023-03-01T18:05:36;3.60;83.10
4056;DHT22;2043;52.184;8.690;2023-03-01T18:08:03;3.80;83.10
4056;DHT22;2043;52.184;8.690;2023-03-01T18:10:31;3.90;82.60
4056;DHT22;2043;52.184;8.690;2023-03-01T18:12:58;4.00;82.00
4056;DHT22;2043;52.184;8.690;2023-03-01T18:15:25;4.20;81.50
4056;DHT22;2043;52.184;8.690;2023-03-01T18:17:53;4.40;80.90
4056;DHT22;2043;52.184;8.690;2023-03-01T18:20:20;4.50;80.60
4056;DHT22;2043;52.184;8.690;2023-03-01T18:22:47;4.60;80.40
4056;DHT22;2043;52.184;8.690;2023-03-01T18:25:14;4.60;79.60
4056;DHT22;2043;52.184;8.690;2023-03-01T18:27:41;4.60;79.90
4056;DHT22;2043;52.184;8.690;2023-03-01T18:30:08;4.50;79.90
4056;DHT22;2043;52.184;8.690;2023-03-01T18:35:06;4.40;79.90
4056;DHT22;2043;52.184;8.690;2023-03-01T18:40:00;4.20;81.10
4056;DHT22;2043;52.184;8.690;2023-03-01T18:42:27;4.00;81.20
4056;DHT22;2043;52.184;8.690;2023-03-01T18:47:20;3.60;82.70
4056;DHT22;2043;52.184;8.690;2023-03-01T18:49:47;3.40;83.20
4056;DHT22;2043;52.184;8.690;2023-03-01T18:59:36;2.70;85.60
4056;DHT22;2043;52.184;8.690;2023-03-01T19:04:30;2.30;87.50
4056;DHT22;2043;52.184;8.690;2023-03-01T19:06:57;2.10;88.00
4056;DHT22;2043;52.184;8.690;2023-03-01T19:11:54;1.70;89.00
4056;DHT22;2043;52.184;8.690;2023-03-01T19:16:51;1.10;91.50
4056;DHT22;2043;52.184;8.690;2023-03-01T19:21:45;0.80;92.20
4056;DHT22;2043;52.184;8.690;2023-03-01T19:29:24;0.60;94.00
4056;DHT22;2043;52.184;8.690;2023-03-01T19:39:15;1.00;93.20
4056;DHT22;2043;52.184;8.690;2023-03-01T19:41:43;0.90;93.00
4056;DHT22;2043;52.184;8.690;2023-03-01T19:44:10;0.70;93.00
4056;DHT22;2043;52.184;8.690;2023-03-01T19:46:38;0.70;93.30
4056;DHT22;2043;52.184;8.690;2023-03-01T19:49:08;0.80;93.40
4056;DHT22;2043;52.184;8.690;2023-03-01T19:51:35;0.80;93.40
4056;DHT22;2043;52.184;8.690;2023-03-01T19:54:04;0.80;93.20
4056;DHT22;2043;52.184;8.690;2023-03-01T19:56:32;0.60;93.10
4056;DHT22;2043;52.184;8.690;2023-03-01T19:59:00;0.60;93.70
4056;DHT22;2043;52.184;8.690;2023-03-01T20:01:30;0.70;94.10
4056;DHT22;2043;52.184;8.690;2023-03-01T20:03:59;0.80;94.00
4056;DHT22;2043;52.184;8.690;2023-03-01T20:08:56;0.80;93.80
4056;DHT22;2043;52.184;8.690;2023-03-01T20:11:23;0.70;93.90
4056;DHT22;2043;52.184;8.690;2023-03-01T20:16:18;0.80;93.80
4056;DHT22;2043;52.184;8.690;2023-03-01T20:18:45;0.90;93.60
4056;DHT22;2043;52.184;8.690;2023-03-01T20:21:13;0.80;93.50
4056;DHT22;2043;52.184;8.690;2023-03-01T20:23:50;0.80;93.50
4056;DHT22;2043;52.184;8.690;2023-03-01T20:26:18;0.70;93.70
4056;DHT22;2043;52.184;8.690;2023-03-01T20:28:47;0.80;93.50
4056;DHT22;2043;52.184;8.690;2023-03-01T20:31:16;0.90;92.50
4056;DHT22;2043;52.184;8.690;2023-03-01T20:33:43;1.00;91.80
4056;DHT22;2043;52.184;8.690;2023-03-01T20:36:11;1.10;91.70
4056;DHT22;2043;52.184;8.690;2023-03-01T20:38:38;1.20;91.10
4056;DHT22;2043;52.184;8.690;2023-03-01T20:41:08;1.30;90.80
4056;DHT22;2043;52.184;8.690;2023-03-01T20:43:36;1.30;91.00
4056;DHT22;2043;52.184;8.690;2023-03-01T20:46:05;1.40;90.60
4056;DHT22;2043;52.184;8.690;2023-03-01T20:48:32;1.50;89.70
4056;DHT22;2043;52.184;8.690;2023-03-01T20:53:27;1.70;88.60
4056;DHT22;2043;52.184;8.690;2023-03-01T20:55:54;1.80;88.20
4056;DHT22;2043;52.184;8.690;2023-03-01T21:00:49;1.90;88.10
4056;DHT22;2043;52.184;8.690;2023-03-01T21:05:44;2.00;87.10
4056;DHT22;2043;52.184;8.690;2023-03-01T21:13:06;2.10;86.70
4056;DHT22;2043;52.184;8.690;2023-03-01T21:15:33;2.10;86.60
4056;DHT22;2043;52.184;8.690;2023-03-01T21:18:00;2.10;86.60
4056;DHT22;2043;52.184;8.690;2023-03-01T21:20:27;2.10;86.80
4056;DHT22;2043;52.184;8.690;2023-03-01T21:22:54;2.00;87.60
4056;DHT22;2043;52.184;8.690;2023-03-01T21:30:15;1.90;87.70
4056;DHT22;2043;52.184;8.690;2023-03-01T21:40:06;1.50;89.20
4056;DHT22;2043;52.184;8.690;2023-03-01T21:42:34;1.40;89.50
4056;DHT22;2043;52.184;8.690;2023-03-01T21:45:02;1.30;89.70
4056;DHT22;2043;52.184;8.690;2023-03-01T21:47:29;1.10;89.80
4056;DHT22;2043;52.184;8.690;2023-03-01T21:49:56;0.90;90.40
4056;DHT22;2043;52.184;8.690;2023-03-01T21:54:50;0.40;92.00
4056;DHT22;2043;52.184;8.690;2023-03-01T21:57:18;0.30;92.70
4056;DHT22;2043;52.184;8.690;2023-03-01T22:02:12;0.10;92.80
4056;DHT22;2043;52.184;8.690;2023-03-01T22:12:01;-0.10;94.30
4056;DHT22;2043;52.184;8.690;2023-03-01T22:14:30;-0.10;94.30
4056;DHT22;2043;52.184;8.690;2023-03-01T22:16:57;-0.10;94.10
4056;DHT22;2043;52.184;8.690;2023-03-01T22:24:22;-0.20;94.90
4056;DHT22;2043;52.184;8.690;2023-03-01T22:26:50;-0.30;94.80
4056;DHT22;2043;52.184;8.690;2023-03-01T22:29:24;-0.40;94.70
4056;DHT22;2043;52.184;8.690;2023-03-01T22:31:51;-0.40;94.80
4056;DHT22;2043;52.184;8.690;2023-03-01T22:34:19;-0.50;95.30
4056;DHT22;2043;52.184;8.690;2023-03-01T22:36:46;-0.50;95.10
4056;DHT22;2043;52.184;8.690;2023-03-01T22:39:14;-0.60;95.10
4056;DHT22;2043;52.184;8.690;2023-03-01T22:41:43;-0.70;95.20
4056;DHT22;2043;52.184;8.690;2023-03-01T22:44:16;-0.90;95.30